This is the latest recevied weather packets stored in our database for station/object KJ4EBE. If no packets are shown the sender has not sent any weather packets the latest 1 day(s).
| Time | Temp. | Humidity | Pressure | Rain* | Wind** | Luminosity | Snow |
|---|---|---|---|---|---|---|---|
| 1778082730 | 12.78° C | 95% | 1013.8 hPa | 0.51 mm | - | 31 W/m² | - |
| 1778079168 | 13.89° C | 93% | 1013.1 hPa | 0 mm | - | 9 W/m² | - |
| 1778078562 | 14.44° C | 94% | 1013.1 hPa | 0 mm | - | 6 W/m² | - |
| 1778078260 | 15° C | 93% | 1012.4 hPa | 0 mm | - | 8 W/m² | - |
| 1778077051 | 15.56° C | 93% | 1012.6 hPa | 0 mm | - | 14 W/m² | - |
| 1778075536 | 16.11° C | 92% | 1012.1 hPa | 0 mm | - | 38 W/m² | - |
| 1778074929 | 16.67° C | 91% | 1011.3 hPa | 0 mm | - | 25 W/m² | - |
| 1778074627 | 16.67° C | 91% | 1011 hPa | 0 mm | - | 37 W/m² | - |
| 1778074323 | 16.67° C | 90% | 1011 hPa | 0 mm | - | 44 W/m² | - |
| 1778073111 | 16.67° C | 88% | 1011.3 hPa | 0 mm | - | 46 W/m² | - |
| 1778069480 | 17.78° C | 88% | 1010.1 hPa | 0 mm | - | 10 W/m² | - |
| 1778067968 | 18.33° C | 90% | 1009.7 hPa | 0 mm | - | 0 W/m² | - |
| 1778067061 | 18.89° C | 91% | 1009.6 hPa | 0 mm | - | 0 W/m² | - |
| 1778066455 | 18.89° C | 92% | 1009.7 hPa | 0 mm | - | 0 W/m² | - |
| 1778066153 | 18.89° C | 92% | 1009.7 hPa | 0 mm | - | 0 W/m² | - |
| 1778065850 | 18.33° C | 92% | 1009.7 hPa | 0 mm | - | 0 W/m² | - |
| 1778064336 | 19.44° C | 94% | 1009.3 hPa | 0 mm | - | 0 W/m² | - |
| 1778063126 | 20.56° C | 96% | 1009 hPa | 0 mm | - | 0 W/m² | - |
| 1778062823 | 21.67° C | 97% | 1009.1 hPa | 0 mm | - | 0 W/m² | - |
| 1778062519 | 22.78° C | 98% | 1008.9 hPa | 0 mm | - | 0 W/m² | - |
| 1778061613 | 22.78° C | 97% | 1008.7 hPa | 0.51 mm | - | 0 W/m² | - |
| 1778060705 | 23.33° C | 96% | 1008.5 hPa | 0 mm | - | 0 W/m² | - |
| 1778059798 | 23.33° C | 94% | 1008.5 hPa | 0 mm | - | 0 W/m² | - |
| 1778058587 | 23.33° C | 94% | 1008.3 hPa | 0 mm | - | 0 W/m² | - |
| 1778058285 | 23.33° C | 94% | 1008.2 hPa | 0 mm | - | 0 W/m² | - |
* Rain latest hour (hover to see other rain measurements)
** Current wind speed in m/s (hover to see current wind gust speed)